Date,TemperatureHighF,TemperatureAvgF,TemperatureLowF,DewpointHighF,DewpointAvgF,DewpointLowF,HumidityHigh,HumidityAvg,HumidityLow,PressureMaxIn,PressureMinIn,WindSpeedMaxMPH,WindSpeedAvgMPH,GustSpeedMaxMPH,PrecipitationSumIn
2013-2-1,75,64,48,50,45,40,78,52,32,30.10,30.02,6,1,8,0.00
2013-2-2,75,63,53,54,49,44,84,61,35,30.11,30.02,5,1,6,0.00
2013-2-3,72,63,52,54,50,46,86,64,42,30.06,29.93,9,1,10,0.00
2013-2-4,70,56,47,57,50,43,96,80,54,30.02,29.90,7,1,8,0.00
2013-2-5,56,52,48,52,49,48,97,91,81,30.04,29.92,7,1,7,0.01
2013-2-6,62,54,48,51,48,46,94,80,59,30.05,29.94,10,1,11,0.00
2013-2-7,61,52,43,52,47,42,96,85,71,30.07,29.94,10,1,11,0.00
2013-2-8,54,48,41,48,42,39,92,82,66,29.95,29.84,17,2,20,0.26
2013-2-9,58,46,37,42,39,36,95,79,48,30.05,29.87,11,1,12,0.01
2013-2-10,55,48,40,45,41,34,87,77,61,30.06,29.96,9,1,9,0.00
2013-2-11,60,49,39,47,41,36,91,74,43,30.18,30.00,12,2,15,0.00
2013-2-12,64,50,39,48,40,31,88,68,39,30.29,30.17,12,1,12,0.00
2013-2-13,68,48,40,46,37,34,84,69,33,30.20,30.07,7,1,10,0.00
2013-2-14,75,53,42,49,42,37,86,71,35,30.15,29.98,6,1,8,0.00
2013-2-15,83,73,53,40,31,20,54,24,10,30.11,30.02,10,2,15,0.00
2013-2-16,78,70,58,38,30,24,34,23,14,30.07,30.05,4,1,6,0.00
2013-2-17,65,56,48,51,46,30,89,70,42,29.97,29.86,11,3,13,0.00
2013-2-18,63,53,50,49,46,44,88,79,58,30.00,29.90,11,3,12,0.00
2013-2-19,51,50,47,45,42,40,92,74,67,29.90,29.69,6,2,7,0.38
2013-2-20,57,52,45,42,37,31,78,57,40,29.89,29.65,18,3,18,0.00
2013-2-21,60,52,44,46,44,40,88,74,52,30.03,29.91,10,2,11,0.00
2013-2-22,65,47,39,47,39,35,92,75,36,30.14,30.03,13,1,15,0.00
2013-2-23,63,51,41,48,40,34,86,66,38,30.10,29.87,9,2,12,0.00